Time;durP1;ratioP1;P1;durP2;ratioP2;P2;SDS_P1;SDS_P2;PMS_P1;PMS_P2;Temp;Humidity;BMP_temperature;BMP_pressure;BME280_temperature;BME280_humidity;BME280_pressure;Samples;Min_cycle;Max_cycle;Signal;HPM_P1;HPM_P2
2023/09/08 00:01:57;;;;;;;54.88;38.08;;;17.60;99.90;;;;;;5093415;28;20330;-78
2023/09/08 00:04:23;;;;;;;66.28;42.55;;;17.50;99.90;;;;;;5092887;28;20122;-79
2023/09/08 00:06:49;;;;;;;50.83;34.72;;;17.50;99.90;;;;;;5092646;28;20023;-79
2023/09/08 00:09:15;;;;;;;43.33;31.15;;;17.50;99.90;;;;;;5092846;28;20020;-79
2023/09/08 00:11:40;;;;;;;46.85;30.40;;;17.50;99.90;;;;;;5092805;28;20087;-79
2023/09/08 00:14:06;;;;;;;50.08;35.92;;;17.50;99.90;;;;;;5092749;28;20409;-79
2023/09/08 00:16:32;;;;;;;46.75;31.88;;;17.40;99.90;;;;;;5092603;28;20393;-79
2023/09/08 00:18:58;;;;;;;58.35;37.25;;;17.40;99.90;;;;;;5092869;28;20194;-79
2023/09/08 00:21:25;;;;;;;45.15;31.13;;;17.40;99.90;;;;;;5092886;28;20107;-79
2023/09/08 00:23:51;;;;;;;58.65;38.78;;;17.40;99.90;;;;;;5092375;28;20036;-79
2023/09/08 00:26:17;;;;;;;47.70;33.33;;;17.40;99.90;;;;;;5093174;28;20039;-79
2023/09/08 00:28:43;;;;;;;56.13;38.25;;;17.40;99.90;;;;;;5091866;28;20024;-79
2023/09/08 00:31:09;;;;;;;46.58;33.65;;;17.40;99.90;;;;;;5092740;28;20514;-79
2023/09/08 00:33:34;;;;;;;47.58;30.60;;;17.40;99.90;;;;;;5092012;28;20095;-78
2023/09/08 00:36:00;;;;;;;52.35;33.30;;;17.30;99.90;;;;;;5092589;28;20020;-80
2023/09/08 00:38:26;;;;;;;68.95;41.30;;;17.30;99.90;;;;;;5092184;28;20028;-79
2023/09/08 00:40:52;;;;;;;56.53;38.67;;;17.40;99.90;;;;;;5092565;28;20444;-79
2023/09/08 00:43:18;;;;;;;54.33;35.75;;;17.40;99.90;;;;;;5092588;28;20116;-79
2023/09/08 00:45:45;;;;;;;54.25;37.15;;;17.40;99.90;;;;;;5091706;28;20052;-79
2023/09/08 00:48:12;;;;;;;41.63;27.85;;;17.30;99.90;;;;;;5091699;28;20114;-79
2023/09/08 00:50:38;;;;;;;51.85;33.88;;;17.30;99.90;;;;;;5091693;28;20486;-79
2023/09/08 00:53:05;;;;;;;50.05;33.30;;;17.30;99.90;;;;;;5092488;28;20024;-80
2023/09/08 00:55:32;;;;;;;60.70;39.28;;;17.30;99.90;;;;;;5091790;28;20073;-78
2023/09/08 00:57:58;;;;;;;54.35;37.33;;;17.20;99.90;;;;;;5092229;28;20028;-80
2023/09/08 01:00:25;;;;;;;57.97;38.42;;;17.10;99.90;;;;;;5092453;28;20465;-78
2023/09/08 01:02:51;;;;;;;48.05;31.42;;;17.10;99.90;;;;;;5073627;28;20024;-79
2023/09/08 01:05:17;;;;;;;45.85;30.45;;;17.10;99.90;;;;;;5091999;28;20030;-78
2023/09/08 01:07:43;;;;;;;53.33;35.97;;;17.10;99.90;;;;;;5091445;28;20028;-78
2023/09/08 01:10:09;;;;;;;63.38;39.25;;;17.20;99.90;;;;;;5091576;28;20039;-78
2023/09/08 01:12:35;;;;;;;44.95;32.78;;;17.20;99.90;;;;;;5091135;28;20051;-79
2023/09/08 01:15:05;;;;;;;55.53;37.35;;;17.10;99.90;;;;;;5091524;28;20384;-78
2023/09/08 01:17:30;;;;;;;49.60;32.83;;;17.20;99.90;;;;;;5091688;28;20078;-78
2023/09/08 01:19:59;;;;;;;57.13;36.88;;;17.20;99.90;;;;;;5090923;28;20036;-79
2023/09/08 01:22:47;;;;;;;46.35;33.10;;;17.20;99.90;;;;;;5091551;28;20020;-79
2023/09/08 01:25:17;;;;;;;65.20;42.17;;;17.20;99.90;;;;;;5091539;28;20032;-78
2023/09/08 01:27:49;;;;;;;69.13;42.05;;;17.20;99.90;;;;;;5090906;28;20342;-78
2023/09/08 01:30:16;;;;;;;61.13;39.67;;;17.20;99.90;;;;;;5091426;28;20222;-79
2023/09/08 01:32:43;;;;;;;57.13;40.15;;;17.00;99.90;;;;;;5090705;28;20028;-78
2023/09/08 01:35:10;;;;;;;63.75;41.47;;;17.00;99.90;;;;;;5091147;28;20330;-78
2023/09/08 01:37:38;;;;;;;61.92;38.38;;;16.90;99.90;;;;;;5090749;28;20020;-78
2023/09/08 01:40:05;;;;;;;63.65;39.67;;;16.90;99.90;;;;;;5091477;28;20469;-79
2023/09/08 01:42:31;;;;;;;64.18;41.00;;;16.80;99.90;;;;;;5091281;28;20103;-79
2023/09/08 01:44:56;;;;;;;55.83;36.60;;;16.80;99.90;;;;;;5090485;28;20521;-78
2023/09/08 01:47:22;;;;;;;64.97;40.92;;;16.80;99.90;;;;;;5090811;28;20034;-79
2023/09/08 01:49:47;;;;;;;80.10;46.60;;;16.80;99.90;;;;;;5090437;28;20354;-77
2023/09/08 01:52:13;;;;;;;53.17;35.40;;;16.80;99.90;;;;;;5091236;28;20039;-78
2023/09/08 01:54:39;;;;;;;60.13;37.15;;;16.80;99.90;;;;;;5089617;28;20057;-77
2023/09/08 01:57:05;;;;;;;55.42;35.05;;;16.80;99.90;;;;;;5091050;28;20024;-78
2023/09/08 01:59:30;;;;;;;77.95;46.00;;;16.90;99.90;;;;;;5090730;28;20036;-78
2023/09/08 02:01:56;;;;;;;62.88;39.17;;;16.90;99.90;;;;;;5090347;28;20055;-78
2023/09/08 02:04:22;;;;;;;60.65;38.53;;;16.90;99.90;;;;;;5090661;28;20039;-79
2023/09/08 02:06:47;;;;;;;54.90;35.78;;;16.90;99.90;;;;;;5090173;28;20020;-78
2023/09/08 02:09:14;;;;;;;58.30;39.42;;;16.80;99.90;;;;;;5090807;28;20450;-79
2023/09/08 02:11:41;;;;;;;72.03;44.80;;;16.80;99.90;;;;;;5090328;28;20457;-78
2023/09/08 02:14:07;;;;;;;78.53;46.17;;;16.80;99.90;;;;;;5090866;28;20508;-79
2023/09/08 02:16:33;;;;;;;56.97;36.85;;;16.70;99.90;;;;;;5090535;28;20103;-78
2023/09/08 02:18:59;;;;;;;62.78;40.08;;;16.80;99.90;;;;;;5090365;28;20372;-78
2023/09/08 02:21:24;;;;;;;65.47;39.03;;;16.70;99.90;;;;;;5090627;28;20376;-79
2023/09/08 02:23:50;;;;;;;69.75;42.60;;;16.80;99.90;;;;;;5089943;28;20035;-79
2023/09/08 02:26:16;;;;;;;65.47;41.65;;;16.70;99.90;;;;;;5090062;28;20028;-79
2023/09/08 02:28:41;;;;;;;46.20;31.17;;;16.80;99.90;;;;;;5089854;28;20082;-79
2023/09/08 02:31:07;;;;;;;45.88;30.65;;;16.80;99.90;;;;;;5090499;28;20059;-79
2023/09/08 02:33:33;;;;;;;59.75;38.33;;;16.90;99.90;;;;;;5090263;28;20024;-78
2023/09/08 02:36:05;;;;;;;64.53;43.28;;;16.90;99.90;;;;;;5089953;28;20059;-79
2023/09/08 02:38:32;;;;;;;51.33;33.78;;;16.90;99.90;;;;;;5072287;28;20068;-79
2023/09/08 02:40:58;;;;;;;46.42;31.42;;;16.90;99.90;;;;;;5090382;28;20469;-79
2023/09/08 02:43:24;;;;;;;73.78;46.42;;;16.90;99.90;;;;;;5090592;28;20035;-79
2023/09/08 02:45:49;;;;;;;65.85;43.65;;;17.00;99.90;;;;;;5089844;28;20207;-79
2023/09/08 02:48:16;;;;;;;53.78;34.38;;;16.90;99.90;;;;;;5090402;28;20028;-79
2023/09/08 02:50:43;;;;;;;47.45;32.25;;;16.90;99.90;;;;;;5089920;28;20108;-79
2023/09/08 02:53:09;;;;;;;54.25;36.95;;;16.80;99.90;;;;;;5090922;28;20056;-79
2023/09/08 02:55:35;;;;;;;63.30;40.08;;;16.80;99.90;;;;;;5090539;28;20035;-79
2023/09/08 02:58:00;;;;;;;58.00;36.30;;;16.80;99.90;;;;;;5089511;28;20036;-79
2023/09/08 03:00:26;;;;;;;53.47;34.50;;;16.80;99.90;;;;;;5090416;28;20421;-79
2023/09/08 03:02:52;;;;;;;39.97;27.02;;;16.80;99.90;;;;;;5090154;28;20032;-78
2023/09/08 03:05:17;;;;;;;44.42;29.98;;;16.80;99.90;;;;;;5090497;28;20024;-78
2023/09/08 03:07:43;;;;;;;61.63;38.53;;;16.80;99.90;;;;;;5089640;28;20040;-78
2023/09/08 03:10:09;;;;;;;61.85;37.00;;;16.80;99.90;;;;;;5090201;28;20020;-78
2023/09/08 03:12:35;;;;;;;58.50;37.35;;;16.70;99.90;;;;;;5092843;28;20134;-79
2023/09/08 03:15:02;;;;;;;57.08;37.00;;;16.70;99.90;;;;;;5093577;28;20132;-79
2023/09/08 03:17:28;;;;;;;45.95;31.23;;;16.60;99.90;;;;;;5093761;28;20020;-79
2023/09/08 03:19:54;;;;;;;47.67;32.95;;;16.70;99.90;;;;;;5093436;28;20053;-79
2023/09/08 03:22:19;;;;;;;54.45;36.78;;;16.60;99.90;;;;;;5093682;28;20028;-79
2023/09/08 03:24:45;;;;;;;49.30;32.58;;;16.60;99.90;;;;;;5093008;28;20020;-77
2023/09/08 03:27:11;;;;;;;38.47;26.27;;;16.60;99.90;;;;;;5093609;28;20093;-79
2023/09/08 03:29:36;;;;;;;33.92;24.08;;;16.60;99.90;;;;;;5093713;28;20508;-78
2023/09/08 03:32:02;;;;;;;41.55;28.70;;;16.60;99.90;;;;;;5093496;28;20028;-78
2023/09/08 03:34:28;;;;;;;67.28;38.83;;;16.70;99.90;;;;;;5093742;28;20462;-79
2023/09/08 03:36:54;;;;;;;44.83;28.60;;;16.70;99.90;;;;;;5074648;28;20057;-79
2023/09/08 03:39:20;;;;;;;44.60;30.33;;;16.70;99.90;;;;;;5093500;28;20028;-79
2023/09/08 03:41:46;;;;;;;56.00;36.72;;;16.70;99.90;;;;;;5093981;28;20040;-80
2023/09/08 03:44:11;;;;;;;65.90;40.10;;;16.70;99.90;;;;;;5094066;28;20488;-79
2023/09/08 03:46:37;;;;;;;53.63;36.00;;;16.60;99.90;;;;;;5093309;28;20052;-79
2023/09/08 03:49:03;;;;;;;54.85;35.67;;;16.60;99.90;;;;;;5093239;28;20532;-79
2023/09/08 03:51:29;;;;;;;54.08;35.30;;;16.50;99.90;;;;;;5094050;28;20065;-79
2023/09/08 03:53:55;;;;;;;56.63;37.03;;;16.50;99.90;;;;;;5075032;28;20067;-79
2023/09/08 03:56:20;;;;;;;54.35;35.03;;;16.40;99.90;;;;;;5093799;28;20035;-79
2023/09/08 03:58:47;;;;;;;42.58;27.63;;;16.40;99.90;;;;;;5093006;28;20031;-78
2023/09/08 04:01:13;;;;;;;54.92;36.55;;;16.50;99.90;;;;;;5075104;28;20106;-78
2023/09/08 04:03:38;;;;;;;53.20;33.65;;;16.60;99.90;;;;;;5093185;28;20150;-78
2023/09/08 04:06:04;;;;;;;48.63;32.50;;;16.60;99.90;;;;;;5092279;28;20061;-78
2023/09/08 04:08:30;;;;;;;67.03;42.45;;;16.70;99.90;;;;;;5093147;28;20119;-78
2023/09/08 04:10:55;;;;;;;61.42;39.20;;;16.60;99.90;;;;;;5092756;28;20417;-78
2023/09/08 04:13:21;;;;;;;58.35;37.92;;;16.50;99.90;;;;;;5093442;28;20024;-78
2023/09/08 04:15:47;;;;;;;52.90;33.33;;;16.50;99.90;;;;;;5092040;28;20024;-78
2023/09/08 04:18:12;;;;;;;52.08;34.72;;;16.60;99.90;;;;;;5074748;28;20130;-78
2023/09/08 04:20:39;;;;;;;54.55;35.38;;;16.50;99.90;;;;;;5092873;28;20461;-77
2023/09/08 04:23:04;;;;;;;65.47;40.70;;;16.60;99.90;;;;;;5072744;28;20613;-78
2023/09/08 04:25:30;;;;;;;60.50;36.85;;;16.60;99.90;;;;;;5092533;28;20071;-78
2023/09/08 04:27:56;;;;;;;58.03;37.30;;;16.50;99.90;;;;;;5092154;28;20028;-79
2023/09/08 04:30:22;;;;;;;62.45;39.70;;;16.50;99.90;;;;;;5092441;28;20248;-79
2023/09/08 04:32:47;;;;;;;59.45;37.20;;;16.50;99.90;;;;;;5091742;28;20027;-78
2023/09/08 04:35:13;;;;;;;52.80;34.05;;;16.40;99.90;;;;;;5074285;28;20028;-78
2023/09/08 04:37:39;;;;;;;53.38;34.63;;;16.40;99.90;;;;;;5092214;28;20081;-79
2023/09/08 04:40:07;;;;;;;62.78;37.78;;;16.40;99.90;;;;;;5091824;28;20612;-78
2023/09/08 04:42:33;;;;;;;44.75;31.10;;;16.40;99.90;;;;;;5092203;28;20381;-79
2023/09/08 04:44:59;;;;;;;64.55;40.70;;;16.40;99.90;;;;;;5091524;28;20021;-78
2023/09/08 04:47:24;;;;;;;63.25;41.42;;;16.50;99.90;;;;;;5092108;28;20054;-78
2023/09/08 04:49:50;;;;;;;48.05;31.65;;;16.50;99.90;;;;;;5091562;28;20032;-78
2023/09/08 04:52:16;;;;;;;52.53;32.25;;;16.50;99.90;;;;;;5092244;28;20024;-78
2023/09/08 04:54:41;;;;;;;63.72;39.70;;;16.50;99.90;;;;;;5092225;28;20111;-79
2023/09/08 04:57:07;;;;;;;72.13;44.03;;;16.60;99.90;;;;;;5091095;28;20085;-78
2023/09/08 04:59:33;;;;;;;53.67;35.13;;;16.50;99.90;;;;;;5091982;28;20046;-78
2023/09/08 05:01:59;;;;;;;47.05;31.42;;;16.50;99.90;;;;;;5091382;28;20066;-78
2023/09/08 05:04:25;;;;;;;51.35;32.20;;;16.50;99.90;;;;;;5073739;28;20059;-78
2023/09/08 05:06:50;;;;;;;62.85;38.90;;;16.50;99.90;;;;;;5091104;28;20085;-78
2023/09/08 05:09:16;;;;;;;52.63;34.85;;;16.50;99.90;;;;;;5092203;28;20024;-79
2023/09/08 05:11:42;;;;;;;40.47;27.33;;;16.50;99.90;;;;;;5092005;28;20047;-79
2023/09/08 05:14:08;;;;;;;51.28;33.58;;;16.50;99.90;;;;;;5091288;28;20444;-78
2023/09/08 05:16:37;;;;;;;53.95;35.08;;;16.40;99.90;;;;;;5073701;28;20024;-79
2023/09/08 05:19:04;;;;;;;47.85;31.08;;;16.40;99.90;;;;;;5090920;28;20032;-79
2023/09/08 05:21:31;;;;;;;56.63;32.90;;;16.40;99.90;;;;;;5092248;28;20031;-79
2023/09/08 05:23:57;;;;;;;46.58;31.92;;;16.40;99.90;;;;;;5091036;28;20056;-79
2023/09/08 05:26:22;;;;;;;48.47;32.53;;;16.40;99.90;;;;;;5091224;28;20052;-79
2023/09/08 05:28:48;;;;;;;55.10;35.95;;;16.40;99.90;;;;;;5091062;28;20078;-79
2023/09/08 05:31:14;;;;;;;45.45;29.40;;;16.40;99.90;;;;;;5091281;28;20084;-78
2023/09/08 05:33:39;;;;;;;51.45;31.90;;;16.50;99.90;;;;;;5091849;28;20112;-79
2023/09/08 05:36:05;;;;;;;66.70;40.58;;;16.50;99.90;;;;;;5072139;28;20461;-79
2023/09/08 05:38:31;;;;;;;61.90;37.10;;;16.50;99.90;;;;;;5073180;28;20388;-78
2023/09/08 05:40:56;;;;;;;61.83;39.58;;;16.50;99.90;;;;;;5091086;28;20042;-79
2023/09/08 05:43:24;;;;;;;45.65;30.25;;;16.50;99.90;;;;;;5091210;28;20095;-78
2023/09/08 05:45:50;;;;;;;49.85;32.70;;;16.50;99.90;;;;;;5072465;28;20048;-78
2023/09/08 05:48:16;;;;;;;48.03;32.00;;;16.60;99.90;;;;;;5091347;28;20043;-78
2023/09/08 05:50:42;;;;;;;38.83;27.55;;;16.60;99.90;;;;;;5091327;28;20360;-78
2023/09/08 05:53:08;;;;;;;39.63;25.85;;;16.60;99.90;;;;;;5090354;28;20148;-77
2023/09/08 05:55:34;;;;;;;49.70;33.17;;;16.70;99.90;;;;;;5091534;28;20028;-78
2023/09/08 05:57:59;;;;;;;52.35;34.78;;;16.60;99.90;;;;;;5090476;28;20035;-77
2023/09/08 06:00:26;;;;;;;59.15;36.40;;;16.60;99.90;;;;;;5072867;28;20146;-78
2023/09/08 06:02:51;;;;;;;46.65;30.77;;;16.60;99.90;;;;;;5072179;28;20457;-78
2023/09/08 06:05:17;;;;;;;51.75;34.42;;;16.50;99.90;;;;;;5091171;28;20028;-79
2023/09/08 06:07:43;;;;;;;45.78;30.40;;;16.50;99.90;;;;;;5090546;28;20025;-79
2023/09/08 06:10:10;;;;;;;42.58;29.98;;;16.60;99.90;;;;;;5090512;28;20553;-79
2023/09/08 06:12:35;;;;;;;48.25;31.70;;;16.60;99.90;;;;;;5090621;28;20128;-78
2023/09/08 06:15:03;;;;;;;51.45;34.33;;;16.60;99.90;;;;;;5090346;28;20118;-78
2023/09/08 06:17:28;;;;;;;54.92;36.20;;;16.70;99.90;;;;;;5072854;28;20020;-78
2023/09/08 06:19:54;;;;;;;46.25;32.80;;;16.70;99.90;;;;;;5090516;28;20039;-78
2023/09/08 06:22:20;;;;;;;49.22;33.05;;;16.60;99.90;;;;;;5090979;28;20040;-79
2023/09/08 06:24:46;;;;;;;55.70;34.92;;;16.70;99.90;;;;;;5090729;28;20036;-78
2023/09/08 06:27:12;;;;;;;43.55;29.23;;;16.70;99.90;;;;;;5090129;28;20024;-79
2023/09/08 06:29:39;;;;;;;50.13;31.98;;;16.70;99.90;;;;;;5090408;28;20128;-79
2023/09/08 06:32:06;;;;;;;61.30;41.08;;;16.70;99.90;;;;;;5071869;28;20039;-79
2023/09/08 06:34:33;;;;;;;53.75;36.78;;;16.80;99.90;;;;;;5090609;28;20444;-78
2023/09/08 06:36:59;;;;;;;52.67;34.35;;;16.90;99.90;;;;;;5090085;28;20429;-78
2023/09/08 06:39:26;;;;;;;52.70;36.58;;;17.00;99.90;;;;;;5090613;28;20028;-78
2023/09/08 06:41:52;;;;;;;57.35;37.70;;;17.10;99.90;;;;;;5090863;28;20039;-78
2023/09/08 06:44:20;;;;;;;59.92;39.70;;;17.10;99.90;;;;;;5090007;28;20020;-79
2023/09/08 06:46:46;;;;;;;57.30;34.00;;;17.10;99.90;;;;;;5091920;28;20438;-79
2023/09/08 06:49:11;;;;;;;46.28;30.38;;;17.20;99.90;;;;;;5094162;28;20074;-79
2023/09/08 06:51:38;;;;;;;38.38;26.75;;;17.30;99.90;;;;;;5094668;28;20441;-79
2023/09/08 06:54:04;;;;;;;46.03;30.90;;;17.40;99.90;;;;;;5093570;28;20020;-77
2023/09/08 06:56:30;;;;;;;46.95;32.20;;;17.50;99.90;;;;;;5076446;28;20064;-78
2023/09/08 06:58:57;;;;;;;50.45;35.03;;;17.50;99.90;;;;;;5093628;28;20060;-78
2023/09/08 07:01:24;;;;;;;42.30;28.85;;;17.50;99.90;;;;;;5094115;28;20065;-78
2023/09/08 07:03:49;;;;;;;42.67;29.60;;;17.50;99.90;;;;;;5094135;28;20107;-78
2023/09/08 07:06:16;;;;;;;44.42;30.30;;;17.60;99.90;;;;;;5075184;28;20136;-79
2023/09/08 07:08:42;;;;;;;35.63;24.30;;;17.50;99.90;;;;;;5093985;28;20082;-78
2023/09/08 07:11:08;;;;;;;43.30;30.70;;;17.50;99.90;;;;;;5093114;28;20031;-78
2023/09/08 07:13:34;;;;;;;40.13;28.88;;;17.50;99.90;;;;;;5094129;28;20028;-78
2023/09/08 07:16:00;;;;;;;49.80;33.00;;;17.50;99.90;;;;;;5093586;28;20035;-78
2023/09/08 07:18:25;;;;;;;39.60;27.35;;;17.50;99.90;;;;;;5093887;28;20114;-78
2023/09/08 07:20:51;;;;;;;36.67;27.38;;;17.70;99.90;;;;;;5093675;28;20141;-79
2023/09/08 07:23:20;;;;;;;33.45;23.95;;;17.80;99.90;;;;;;5093307;28;20028;-79
2023/09/08 07:25:50;;;;;;;53.72;35.92;;;18.00;99.90;;;;;;5075591;28;20326;-78
2023/09/08 07:28:16;;;;;;;41.95;30.17;;;18.10;99.90;;;;;;5093524;28;20103;-79
2023/09/08 07:30:42;;;;;;;40.78;27.02;;;18.30;99.90;;;;;;5094087;28;20035;-80
2023/09/08 07:33:08;;;;;;;52.40;33.85;;;18.40;99.90;;;;;;5093256;28;20024;-79
2023/09/08 07:35:40;;;;;;;37.42;25.85;;;18.50;99.90;;;;;;5093539;28;20017;-80
2023/09/08 07:38:06;;;;;;;30.63;21.52;;;18.70;99.90;;;;;;5075125;28;20055;-78
2023/09/08 07:40:35;;;;;;;46.28;31.40;;;18.80;99.90;;;;;;5075816;28;20452;-79
2023/09/08 07:43:02;;;;;;;43.47;30.50;;;19.00;99.90;;;;;;5093012;28;20024;-78
2023/09/08 07:45:28;;;;;;;39.25;28.02;;;19.10;99.90;;;;;;5092904;28;20059;-80
2023/09/08 07:47:54;;;;;;;38.67;29.15;;;19.30;99.90;;;;;;5093239;28;20024;-79
2023/09/08 07:50:27;;;;;;;40.10;28.98;;;19.40;99.90;;;;;;5092712;28;20028;-79
2023/09/08 07:52:55;;;;;;;42.30;29.42;;;19.50;99.90;;;;;;5093695;28;20123;-80
2023/09/08 07:55:27;;;;;;;31.50;23.58;;;19.60;99.90;;;;;;5074963;28;20020;-80
2023/09/08 07:57:53;;;;;;;45.47;33.50;;;19.80;99.90;;;;;;5093251;28;20433;-80
2023/09/08 08:00:19;;;;;;;50.85;35.92;;;19.90;99.90;;;;;;5092583;28;20039;-80
2023/09/08 08:02:47;;;;;;;32.00;25.27;;;20.00;99.90;;;;;;5093350;28;20441;-79
2023/09/08 08:05:13;;;;;;;34.58;24.02;;;20.10;99.90;;;;;;5092258;28;20036;-79
2023/09/08 08:07:40;;;;;;;48.17;33.42;;;20.30;99.90;;;;;;5092724;28;20330;-80
2023/09/08 08:10:06;;;;;;;48.53;35.75;;;20.40;99.90;;;;;;5092798;28;20028;-80
2023/09/08 08:12:32;;;;;;;45.50;33.08;;;20.50;99.90;;;;;;5092922;28;20031;-80
2023/09/08 08:15:00;;;;;;;31.55;24.23;;;20.60;99.90;;;;;;5074182;28;20024;-79
2023/09/08 08:17:27;;;;;;;49.67;36.45;;;20.70;99.90;;;;;;5092733;28;20462;-79
2023/09/08 08:19:54;;;;;;;52.88;35.97;;;20.80;99.90;;;;;;5092406;28;20039;-79
2023/09/08 08:22:20;;;;;;;41.78;30.33;;;20.80;99.90;;;;;;5074195;28;20068;-79
2023/09/08 08:24:46;;;;;;;34.15;25.55;;;20.90;99.90;;;;;;5092862;28;20075;-79
2023/09/08 08:27:11;;;;;;;41.55;30.83;;;20.90;99.90;;;;;;5091943;28;20031;-79
2023/09/08 08:29:38;;;;;;;31.02;23.88;;;21.00;99.90;;;;;;5074051;28;20030;-79
2023/09/08 08:32:04;;;;;;;34.15;26.27;;;21.10;99.90;;;;;;5091752;28;20028;-79
2023/09/08 08:34:30;;;;;;;42.22;30.23;;;21.20;99.90;;;;;;5092432;28;20016;-79
2023/09/08 08:36:56;;;;;;;33.75;24.75;;;21.30;99.90;;;;;;5092419;28;20103;-79
2023/09/08 08:39:22;;;;;;;33.40;23.38;;;21.40;99.90;;;;;;5091557;28;20093;-79
2023/09/08 08:41:47;;;;;;;28.77;21.42;;;21.40;99.90;;;;;;5092561;28;20036;-79
2023/09/08 08:44:15;;;;;;;31.90;24.02;;;21.50;99.90;;;;;;5091693;28;20024;-79
2023/09/08 08:46:42;;;;;;;33.53;26.27;;;21.60;99.90;;;;;;5092526;28;20063;-79
2023/09/08 08:49:11;;;;;;;40.30;29.42;;;21.70;99.90;;;;;;5091876;28;20055;-79
2023/09/08 08:51:38;;;;;;;45.90;31.50;;;21.60;99.90;;;;;;5092331;28;20024;-79
2023/09/08 08:54:05;;;;;;;34.25;24.63;;;21.70;99.90;;;;;;5092119;28;20028;-79
2023/09/08 08:56:35;;;;;;;31.58;24.13;;;21.70;99.90;;;;;;5091736;28;20469;-79
2023/09/08 08:59:01;;;;;;;27.52;19.85;;;21.90;99.90;;;;;;5091856;28;20527;-79
2023/09/08 09:01:28;;;;;;;42.22;28.45;;;21.90;99.90;;;;;;5091871;28;20081;-79
2023/09/08 09:03:55;;;;;;;31.10;23.55;;;22.00;99.90;;;;;;5091631;28;20032;-80
2023/09/08 09:06:21;;;;;;;34.28;25.70;;;22.00;99.90;;;;;;5072222;28;20047;-79
2023/09/08 09:08:46;;;;;;;28.20;22.30;;;22.10;99.90;;;;;;5091086;28;20028;-79
2023/09/08 09:11:13;;;;;;;36.03;23.40;;;22.20;99.90;;;;;;5090565;28;20069;-80
2023/09/08 09:13:39;;;;;;;34.85;24.67;;;22.20;99.90;;;;;;5073248;28;20031;-79
2023/09/08 09:16:10;;;;;;;23.33;17.77;;;22.30;99.90;;;;;;5090951;28;20024;-79
2023/09/08 09:18:53;;;;;;;41.47;29.23;;;22.30;99.90;;;;;;5072911;28;20165;-79
2023/09/08 09:21:18;;;;;;;28.08;21.45;;;22.40;99.90;;;;;;5072551;28;20038;-79
2023/09/08 09:23:44;;;;;;;24.17;19.00;;;22.50;99.90;;;;;;5090731;28;20024;-79
2023/09/08 09:26:22;;;;;;;37.35;26.27;;;22.60;99.90;;;;;;5090129;28;20020;-79
2023/09/08 09:28:48;;;;;;;33.33;23.85;;;22.80;99.90;;;;;;5091252;28;20038;-81
2023/09/08 09:31:14;;;;;;;36.10;24.35;;;22.80;99.90;;;;;;5089834;28;20107;-79
2023/09/08 09:33:39;;;;;;;32.72;24.67;;;22.90;99.90;;;;;;5090992;28;20073;-81
2023/09/08 09:36:07;;;;;;;25.05;17.48;;;22.90;99.90;;;;;;5089883;28;20399;-81
2023/09/08 09:38:35;;;;;;;27.52;21.33;;;22.90;99.90;;;;;;5090753;28;20031;-80
2023/09/08 09:41:01;;;;;;;25.00;15.98;;;23.00;99.90;;;;;;5090868;28;20032;-79
2023/09/08 09:43:29;;;;;;;37.50;26.10;;;23.00;99.90;;;;;;5089781;28;20024;-79
2023/09/08 09:45:55;;;;;;;31.13;22.90;;;23.10;99.90;;;;;;5090804;28;20130;-81
2023/09/08 09:48:23;;;;;;;32.47;24.48;;;23.10;99.90;;;;;;5072130;28;20036;-80
2023/09/08 09:50:49;;;;;;;29.08;21.27;;;23.20;99.90;;;;;;5090750;28;20488;-79
2023/09/08 09:53:17;;;;;;;30.02;22.38;;;23.20;99.90;;;;;;5071761;28;20028;-79
2023/09/08 09:55:44;;;;;;;21.02;14.90;;;23.30;99.90;;;;;;5090845;28;20019;-79
2023/09/08 09:58:11;;;;;;;38.25;25.63;;;23.30;99.90;;;;;;5071664;28;20141;-80
2023/09/08 10:00:37;;;;;;;29.83;22.08;;;23.40;99.90;;;;;;5090707;28;20032;-80
2023/09/08 10:03:07;;;;;;;17.85;14.30;;;23.50;99.90;;;;;;5090656;28;20024;-80
2023/09/08 10:05:33;;;;;;;27.23;19.00;;;23.60;99.90;;;;;;5090683;28;20024;-80
2023/09/08 10:07:59;;;;;;;36.30;24.40;;;23.60;99.90;;;;;;5090804;28;20385;-79
2023/09/08 10:10:30;;;;;;;30.63;20.23;;;23.70;99.90;;;;;;5090007;28;20032;-78
2023/09/08 10:13:03;;;;;;;23.25;17.15;;;23.70;99.90;;;;;;5090413;28;20365;-79
2023/09/08 10:15:30;;;;;;;;;;;23.70;99.90;;;;;;5090035;28;20024;-79
2023/09/08 10:17:57;;;;;;;22.90;17.55;;;23.70;99.90;;;;;;5090719;28;19911;-80
2023/09/08 10:20:28;;;;;;;18.88;12.80;;;23.70;99.90;;;;;;5089869;28;20028;-79
2023/09/08 10:23:08;;;;;;;18.85;14.27;;;23.70;99.90;;;;;;5090446;28;20174;-80
2023/09/08 10:25:39;;;;;;;20.02;14.77;;;23.80;99.90;;;;;;5090080;28;20032;-80
2023/09/08 10:28:07;;;;;;;21.00;16.33;;;23.70;99.90;;;;;;5090382;28;20032;-80
2023/09/08 10:30:34;;;;;;;22.67;16.95;;;23.70;99.90;;;;;;5091308;28;20024;-79
2023/09/08 10:33:01;;;;;;;27.48;18.90;;;23.80;99.90;;;;;;5090576;28;20028;-80
2023/09/08 10:35:27;;;;;;;21.83;16.00;;;23.80;99.90;;;;;;5090660;28;20333;-79
2023/09/08 10:38:23;;;;;;;24.38;19.30;;;23.80;99.90;;;;;;5090956;28;20020;-80
2023/09/08 10:40:49;;;;;;;39.65;25.63;;;23.80;99.90;;;;;;5073457;28;20360;-80
2023/09/08 10:43:15;;;;;;;35.22;25.67;;;23.90;99.90;;;;;;5090417;28;20032;-79
2023/09/08 10:45:44;;;;;;;40.45;26.42;;;23.80;99.90;;;;;;5072525;28;20499;-80
2023/09/08 10:48:10;;;;;;;26.83;18.85;;;23.80;99.90;;;;;;5090619;28;20055;-77
2023/09/08 10:50:41;;;;;;;39.70;25.00;;;23.80;99.90;;;;;;5090897;28;20112;-79
2023/09/08 10:53:19;;;;;;;23.35;18.73;;;23.90;99.90;;;;;;5090643;28;20036;-79
2023/09/08 10:55:53;;;;;;;25.02;18.02;;;23.90;99.90;;;;;;5090862;28;20031;-79
2023/09/08 10:58:19;;;;;;;27.27;20.35;;;23.90;99.90;;;;;;5089414;28;20484;-79
2023/09/08 11:00:48;;;;;;;26.25;21.38;;;23.90;99.90;;;;;;5089922;28;20028;-82
2023/09/08 11:03:14;;;;;;;24.23;17.55;;;24.00;99.90;;;;;;5071363;28;20024;-81
2023/09/08 11:05:42;;;;;;;22.25;15.00;;;24.00;99.90;;;;;;5071551;28;20085;-81
2023/09/08 11:08:08;;;;;;;27.80;20.23;;;24.10;99.90;;;;;;5090129;28;20365;-81
2023/09/08 11:10:34;;;;;;;22.27;18.33;;;24.10;99.90;;;;;;5089752;28;20024;-83
2023/09/08 11:13:02;;;;;;;21.25;15.77;;;24.00;99.90;;;;;;5090005;28;20052;-80
2023/09/08 11:15:28;;;;;;;23.77;16.45;;;24.00;99.90;;;;;;5089580;28;20028;-81
2023/09/08 11:17:54;;;;;;;21.63;17.55;;;24.10;99.90;;;;;;5089639;28;20046;-81
2023/09/08 11:20:26;;;;;;;25.98;17.55;;;24.10;99.90;;;;;;5089372;28;20036;-82
2023/09/08 11:22:52;;;;;;;;;;;24.20;99.90;;;;;;5089849;28;20114;-82
2023/09/08 11:25:20;;;;;;;32.45;21.02;;;24.10;99.90;;;;;;5071509;28;19952;-82
2023/09/08 11:27:46;;;;;;;22.42;15.13;;;24.00;99.90;;;;;;5090025;28;20058;-82
2023/09/08 11:30:13;;;;;;;24.75;18.25;;;24.00;99.90;;;;;;5089219;28;20361;-80
2023/09/08 11:32:39;;;;;;;30.42;21.30;;;24.00;99.90;;;;;;5090476;28;20028;-82
2023/09/08 11:35:09;;;;;;;30.77;21.27;;;24.10;99.90;;;;;;5093463;28;20475;-81
2023/09/08 11:37:41;;;;;;;28.85;19.45;;;24.10;99.90;;;;;;5074115;28;20491;-81
2023/09/08 11:40:14;;;;;;;20.80;16.17;;;24.10;99.90;;;;;;5075163;28;20080;-82
2023/09/08 11:42:44;;;;;;;31.42;20.08;;;24.10;99.90;;;;;;5093192;28;20494;-82
2023/09/08 11:45:12;;;;;;;26.77;18.65;;;24.20;99.90;;;;;;5092856;28;20498;-81
2023/09/08 11:47:43;;;;;;;28.80;20.73;;;24.20;99.90;;;;;;5092857;28;20446;-81
2023/09/08 11:50:15;;;;;;;26.50;17.42;;;24.30;99.90;;;;;;5093325;28;20369;-82
2023/09/08 11:52:43;;;;;;;25.40;17.50;;;24.40;99.90;;;;;;5092455;28;20031;-82
2023/09/08 11:55:11;;;;;;;15.57;11.88;;;24.50;99.90;;;;;;5092510;28;20055;-82
2023/09/08 11:57:37;;;;;;;18.08;12.35;;;24.60;99.90;;;;;;5092167;28;20032;-82
2023/09/08 12:00:05;;;;;;;55.53;20.27;;;24.70;99.90;;;;;;5093065;28;20089;-82
2023/09/08 12:02:37;;;;;;;16.13;12.25;;;24.70;99.90;;;;;;5092409;28;20482;-82
2023/09/08 12:05:03;;;;;;;25.00;16.85;;;24.60;99.90;;;;;;5092547;28;20017;-82
2023/09/08 12:07:29;;;;;;;26.30;14.95;;;24.60;99.90;;;;;;5092334;28;20043;-82
2023/09/08 12:09:55;;;;;;;25.45;15.57;;;24.70;99.90;;;;;;5074245;28;20028;-82
2023/09/08 12:12:21;;;;;;;25.88;15.13;;;24.60;99.90;;;;;;5091928;28;20030;-82
2023/09/08 12:14:46;;;;;;;19.20;14.02;;;24.60;99.90;;;;;;5092586;28;20035;-82
2023/09/08 12:17:16;;;;;;;20.92;13.30;;;24.60;99.90;;;;;;5092530;28;20031;-82
2023/09/08 12:19:42;;;;;;;12.80;9.65;;;24.60;99.90;;;;;;5091859;28;20036;-82
2023/09/08 12:22:11;;;;;;;21.13;14.55;;;24.60;99.90;;;;;;5092636;28;20035;-82
2023/09/08 12:24:56;;;;;;;20.45;13.18;;;24.70;99.90;;;;;;5091879;28;20075;-83
2023/09/08 12:27:22;;;;;;;19.60;14.45;;;24.80;99.90;;;;;;5073541;28;20024;-82